OIHH  Hamadan Airport

Add Bookmark

Hamadan, Iran

Status IATA
Operational HDM
Latitude Longitude
34° 52' 9" N 48° 33' 9" E
34.869202 48.552502
Local (DST + 5) UTC (GMT + 4)
Oct 23, 2014 09:21 Oct 23, 2014 17:51
Sunrise-Sunset Local UTC
Begin Civil Twilight 06:01 02:31
Sunrise 06:27 02:57
Sunset 05:32 14:02
End Civil Twilight 05:58 14:28

Current Weather

METAR Observed VFR
OIHH 231651Z 00000KT CAVOK 10/08 Q1023 Thu, Oct 23, 2014 @ 16:51 UTC
(1 Hour ago)
Visual Flight Rules
Wind Visibility Clouds Conditions
Calm 10 km or more
  • Clear skies
  • No significant weather
Temperatures Readings Precipitation
Current Temp 10°C (50°F)
Dewpoint 8°C (46°F)
Humidity 88%
Altimeter 30.21"Hg
Sea Level Pressure 1023mb
Field Elevation 5764.44'
None Recorded

Additional weather within a 92.6km radius of OIHH

Map ICAO Location
OIHM 69.5km S (160°)

24 Hour Weather History

Loading
-

24 Hour Weather Graphs

Loading
-

CheckWX.com is intended as a tool to help pilots better visualize weather data. It is not intended as a substitute for an official weather briefing obtained from a Flight Service Station. CheckWX.com does not meet the FAA requirements for an official pre-flight weather briefing. Therefore, it's important that pilots still call and obtain an official FSS pre-flight weather briefing.